sensor_id;sensor_type;location;lat;lon;timestamp;pressure;altitude;pressure_sealevel;temperature;humidity
23433;BME280;41331;45.412;10.992;2024-02-23T00:01:27;99642.56;;;9.63;100.00
23433;BME280;41331;45.412;10.992;2024-02-23T00:03:55;99637.78;;;9.72;100.00
23433;BME280;41331;45.412;10.992;2024-02-23T00:06:23;99625.69;;;9.69;100.00
23433;BME280;41331;45.412;10.992;2024-02-23T00:08:55;99618.88;;;9.63;100.00
23433;BME280;41331;45.412;10.992;2024-02-23T00:11:23;99607.13;;;9.59;100.00
23433;BME280;41331;45.412;10.992;2024-02-23T00:13:51;99598.88;;;9.55;100.00
23433;BME280;41331;45.412;10.992;2024-02-23T00:16:20;99592.75;;;9.58;100.00
23433;BME280;41331;45.412;10.992;2024-02-23T00:18:47;99590.50;;;9.60;100.00
23433;BME280;41331;45.412;10.992;2024-02-23T00:21:15;99589.47;;;9.65;100.00
23433;BME280;41331;45.412;10.992;2024-02-23T00:23:43;99589.69;;;9.60;100.00
23433;BME280;41331;45.412;10.992;2024-02-23T00:26:11;99596.72;;;9.61;100.00
23433;BME280;41331;45.412;10.992;2024-02-23T00:28:38;99589.16;;;9.54;100.00
23433;BME280;41331;45.412;10.992;2024-02-23T00:31:06;99581.66;;;9.51;100.00
23433;BME280;41331;45.412;10.992;2024-02-23T00:33:34;99577.81;;;9.65;100.00
23433;BME280;41331;45.412;10.992;2024-02-23T00:36:02;99577.69;;;9.61;100.00
23433;BME280;41331;45.412;10.992;2024-02-23T00:38:30;99570.34;;;9.62;100.00
23433;BME280;41331;45.412;10.992;2024-02-23T00:40:58;99569.34;;;9.54;100.00
23433;BME280;41331;45.412;10.992;2024-02-23T00:43:26;99559.34;;;9.58;100.00
23433;BME280;41331;45.412;10.992;2024-02-23T00:45:56;99561.97;;;9.54;100.00
23433;BME280;41331;45.412;10.992;2024-02-23T00:48:24;99557.00;;;9.56;100.00
23433;BME280;41331;45.412;10.992;2024-02-23T00:50:52;99555.19;;;9.48;100.00
23433;BME280;41331;45.412;10.992;2024-02-23T00:53:19;99555.84;;;9.57;100.00
23433;BME280;41331;45.412;10.992;2024-02-23T00:55:51;99549.88;;;9.52;100.00
23433;BME280;41331;45.412;10.992;2024-02-23T00:58:19;99538.31;;;9.55;100.00
23433;BME280;41331;45.412;10.992;2024-02-23T01:00:47;99538.63;;;9.66;100.00
23433;BME280;41331;45.412;10.992;2024-02-23T01:03:14;99528.34;;;9.59;100.00
23433;BME280;41331;45.412;10.992;2024-02-23T01:05:42;99514.78;;;9.59;100.00
23433;BME280;41331;45.412;10.992;2024-02-23T01:08:10;99517.00;;;9.69;100.00
23433;BME280;41331;45.412;10.992;2024-02-23T01:10:38;99507.97;;;9.65;100.00
23433;BME280;41331;45.412;10.992;2024-02-23T01:13:06;99508.94;;;9.73;100.00
23433;BME280;41331;45.412;10.992;2024-02-23T01:15:33;99504.47;;;9.65;100.00
23433;BME280;41331;45.412;10.992;2024-02-23T01:18:02;99505.72;;;9.55;100.00
23433;BME280;41331;45.412;10.992;2024-02-23T01:20:30;99490.56;;;9.54;100.00
23433;BME280;41331;45.412;10.992;2024-02-23T01:22:58;99493.38;;;9.57;100.00
23433;BME280;41331;45.412;10.992;2024-02-23T01:25:26;99480.56;;;9.58;100.00
23433;BME280;41331;45.412;10.992;2024-02-23T01:27:54;99469.38;;;9.59;100.00
23433;BME280;41331;45.412;10.992;2024-02-23T01:30:21;99464.81;;;9.64;100.00
23433;BME280;41331;45.412;10.992;2024-02-23T01:32:49;99457.81;;;9.63;100.00
23433;BME280;41331;45.412;10.992;2024-02-23T01:35:18;99450.41;;;9.75;100.00
23433;BME280;41331;45.412;10.992;2024-02-23T01:37:46;99447.72;;;9.63;100.00
23433;BME280;41331;45.412;10.992;2024-02-23T01:40:14;99440.81;;;9.66;100.00
23433;BME280;41331;45.412;10.992;2024-02-23T01:42:41;99440.22;;;9.72;100.00
23433;BME280;41331;45.412;10.992;2024-02-23T01:45:09;99433.31;;;9.75;100.00
23433;BME280;41331;45.412;10.992;2024-02-23T01:47:37;99426.28;;;9.74;100.00
23433;BME280;41331;45.412;10.992;2024-02-23T01:50:05;99415.63;;;9.81;100.00
23433;BME280;41331;45.412;10.992;2024-02-23T01:52:36;99411.97;;;9.89;100.00
23433;BME280;41331;45.412;10.992;2024-02-23T01:55:04;99414.94;;;9.84;100.00
23433;BME280;41331;45.412;10.992;2024-02-23T01:57:32;99419.03;;;9.78;100.00
23433;BME280;41331;45.412;10.992;2024-02-23T02:00:18;99419.47;;;9.80;100.00
23433;BME280;41331;45.412;10.992;2024-02-23T02:02:53;99410.19;;;9.81;100.00
23433;BME280;41331;45.412;10.992;2024-02-23T02:05:22;99413.25;;;9.79;100.00
23433;BME280;41331;45.412;10.992;2024-02-23T02:07:51;99395.84;;;9.68;100.00
23433;BME280;41331;45.412;10.992;2024-02-23T02:10:21;99400.34;;;9.76;100.00
23433;BME280;41331;45.412;10.992;2024-02-23T02:12:49;99418.94;;;9.74;100.00
23433;BME280;41331;45.412;10.992;2024-02-23T02:15:17;99406.94;;;9.75;100.00
23433;BME280;41331;45.412;10.992;2024-02-23T02:17:44;99393.84;;;9.65;100.00
23433;BME280;41331;45.412;10.992;2024-02-23T02:20:13;99401.66;;;9.67;100.00
23433;BME280;41331;45.412;10.992;2024-02-23T02:22:41;99400.50;;;9.68;100.00
23433;BME280;41331;45.412;10.992;2024-02-23T02:25:09;99394.28;;;9.67;100.00
23433;BME280;41331;45.412;10.992;2024-02-23T02:27:37;99383.53;;;9.71;100.00
23433;BME280;41331;45.412;10.992;2024-02-23T02:30:05;99375.97;;;9.64;100.00
23433;BME280;41331;45.412;10.992;2024-02-23T02:32:33;99381.16;;;9.69;100.00
23433;BME280;41331;45.412;10.992;2024-02-23T02:35:04;99379.81;;;9.63;100.00
23433;BME280;41331;45.412;10.992;2024-02-23T02:37:32;99376.41;;;9.66;100.00
23433;BME280;41331;45.412;10.992;2024-02-23T02:40:00;99378.34;;;9.66;100.00
23433;BME280;41331;45.412;10.992;2024-02-23T02:42:28;99367.00;;;9.64;100.00
23433;BME280;41331;45.412;10.992;2024-02-23T02:44:56;99352.31;;;9.65;100.00
23433;BME280;41331;45.412;10.992;2024-02-23T02:47:24;99343.53;;;9.55;100.00
23433;BME280;41331;45.412;10.992;2024-02-23T02:49:52;99329.50;;;9.53;100.00
23433;BME280;41331;45.412;10.992;2024-02-23T02:52:20;99332.06;;;9.62;100.00
23433;BME280;41331;45.412;10.992;2024-02-23T02:54:50;99323.47;;;9.60;100.00
23433;BME280;41331;45.412;10.992;2024-02-23T02:57:18;99321.72;;;9.68;100.00
23433;BME280;41331;45.412;10.992;2024-02-23T02:59:46;99311.09;;;9.63;100.00
23433;BME280;41331;45.412;10.992;2024-02-23T03:02:14;99306.91;;;9.65;100.00
23433;BME280;41331;45.412;10.992;2024-02-23T03:04:48;99305.16;;;9.57;100.00
23433;BME280;41331;45.412;10.992;2024-02-23T03:07:17;99300.59;;;9.61;100.00
23433;BME280;41331;45.412;10.992;2024-02-23T03:09:44;99307.34;;;9.67;100.00
23433;BME280;41331;45.412;10.992;2024-02-23T03:12:15;99292.19;;;9.66;100.00
23433;BME280;41331;45.412;10.992;2024-02-23T03:14:44;99288.78;;;9.69;100.00
23433;BME280;41331;45.412;10.992;2024-02-23T03:17:12;99271.75;;;9.72;100.00
23433;BME280;41331;45.412;10.992;2024-02-23T03:19:40;99273.59;;;9.68;100.00
23433;BME280;41331;45.412;10.992;2024-02-23T03:22:08;99276.06;;;9.73;100.00
23433;BME280;41331;45.412;10.992;2024-02-23T03:24:35;99281.94;;;9.75;100.00
23433;BME280;41331;45.412;10.992;2024-02-23T03:27:03;99281.94;;;9.75;100.00
23433;BME280;41331;45.412;10.992;2024-02-23T03:29:31;99275.72;;;9.75;100.00
23433;BME280;41331;45.412;10.992;2024-02-23T03:32:00;99276.66;;;9.82;100.00
23433;BME280;41331;45.412;10.992;2024-02-23T03:34:29;99264.84;;;9.75;100.00
23433;BME280;41331;45.412;10.992;2024-02-23T03:36:57;99262.75;;;9.84;100.00
23433;BME280;41331;45.412;10.992;2024-02-23T03:39:26;99267.03;;;9.85;100.00
23433;BME280;41331;45.412;10.992;2024-02-23T03:41:54;99250.47;;;9.90;100.00
23433;BME280;41331;45.412;10.992;2024-02-23T03:44:22;99242.22;;;9.86;100.00
23433;BME280;41331;45.412;10.992;2024-02-23T03:46:50;99243.88;;;9.91;100.00
23433;BME280;41331;45.412;10.992;2024-02-23T03:49:18;99237.75;;;9.94;100.00
23433;BME280;41331;45.412;10.992;2024-02-23T03:51:47;99229.16;;;9.92;100.00
23433;BME280;41331;45.412;10.992;2024-02-23T03:54:14;99229.75;;;10.01;100.00
23433;BME280;41331;45.412;10.992;2024-02-23T03:56:42;99210.19;;;10.11;100.00
23433;BME280;41331;45.412;10.992;2024-02-23T03:59:10;99227.78;;;10.18;100.00
23433;BME280;41331;45.412;10.992;2024-02-23T04:01:38;99218.06;;;10.17;100.00
23433;BME280;41331;45.412;10.992;2024-02-23T04:04:07;99210.59;;;10.13;100.00
23433;BME280;41331;45.412;10.992;2024-02-23T04:06:35;99217.19;;;10.12;100.00
23433;BME280;41331;45.412;10.992;2024-02-23T04:09:03;99200.78;;;10.09;100.00
23433;BME280;41331;45.412;10.992;2024-02-23T04:11:34;99199.72;;;10.13;100.00
23433;BME280;41331;45.412;10.992;2024-02-23T04:14:02;99207.28;;;10.20;100.00
23433;BME280;41331;45.412;10.992;2024-02-23T04:16:32;99207.59;;;10.19;100.00
23433;BME280;41331;45.412;10.992;2024-02-23T04:19:00;99207.47;;;10.11;100.00
23433;BME280;41331;45.412;10.992;2024-02-23T04:21:28;99203.59;;;10.12;100.00
23433;BME280;41331;45.412;10.992;2024-02-23T04:23:56;99200.78;;;10.09;100.00
23433;BME280;41331;45.412;10.992;2024-02-23T04:26:23;99190.56;;;10.02;100.00
23433;BME280;41331;45.412;10.992;2024-02-23T04:28:52;99190.72;;;10.09;100.00
23433;BME280;41331;45.412;10.992;2024-02-23T04:31:19;99183.50;;;10.17;100.00
23433;BME280;41331;45.412;10.992;2024-02-23T04:33:47;99180.00;;;10.17;100.00
23433;BME280;41331;45.412;10.992;2024-02-23T04:36:19;99172.72;;;10.21;100.00
23433;BME280;41331;45.412;10.992;2024-02-23T04:38:46;99172.53;;;10.29;100.00
23433;BME280;41331;45.412;10.992;2024-02-23T04:41:19;99175.25;;;10.29;100.00
23433;BME280;41331;45.412;10.992;2024-02-23T04:43:48;99183.06;;;10.31;100.00
23433;BME280;41331;45.412;10.992;2024-02-23T04:46:16;99182.59;;;10.29;100.00
23433;BME280;41331;45.412;10.992;2024-02-23T04:48:44;99172.47;;;10.26;100.00
23433;BME280;41331;45.412;10.992;2024-02-23T04:51:12;99162.00;;;10.28;100.00
23433;BME280;41331;45.412;10.992;2024-02-23T04:53:40;99142.97;;;10.28;100.00
23433;BME280;41331;45.412;10.992;2024-02-23T04:56:08;99152.16;;;10.23;100.00
23433;BME280;41331;45.412;10.992;2024-02-23T04:58:36;99148.34;;;10.24;100.00
23433;BME280;41331;45.412;10.992;2024-02-23T05:01:05;99150.59;;;10.22;100.00
23433;BME280;41331;45.412;10.992;2024-02-23T05:03:32;99139.47;;;10.27;100.00
23433;BME280;41331;45.412;10.992;2024-02-23T05:06:00;99135.94;;;10.27;100.00
23433;BME280;41331;45.412;10.992;2024-02-23T05:08:28;99132.16;;;10.31;100.00
23433;BME280;41331;45.412;10.992;2024-02-23T05:10:58;99131.88;;;10.36;100.00
23433;BME280;41331;45.412;10.992;2024-02-23T05:13:26;99133.06;;;10.39;100.00
23433;BME280;41331;45.412;10.992;2024-02-23T05:15:55;99122.84;;;10.52;100.00
23433;BME280;41331;45.412;10.992;2024-02-23T05:18:23;99111.19;;;10.51;100.00
23433;BME280;41331;45.412;10.992;2024-02-23T05:20:51;99110.25;;;10.44;100.00
23433;BME280;41331;45.412;10.992;2024-02-23T05:23:21;99095.06;;;10.43;100.00
23433;BME280;41331;45.412;10.992;2024-02-23T05:25:49;99102.81;;;10.41;100.00
23433;BME280;41331;45.412;10.992;2024-02-23T05:28:17;99086.91;;;10.43;100.00
23433;BME280;41331;45.412;10.992;2024-02-23T05:30:44;99083.41;;;10.42;100.00
23433;BME280;41331;45.412;10.992;2024-02-23T05:33:12;99079.22;;;10.45;100.00
23433;BME280;41331;45.412;10.992;2024-02-23T05:35:40;99061.38;;;10.47;100.00
23433;BME280;41331;45.412;10.992;2024-02-23T05:38:08;99068.03;;;10.50;100.00
23433;BME280;41331;45.412;10.992;2024-02-23T05:40:36;99065.34;;;10.53;100.00
23433;BME280;41331;45.412;10.992;2024-02-23T05:43:04;99074.31;;;10.54;100.00
23433;BME280;41331;45.412;10.992;2024-02-23T05:45:31;99079.41;;;10.55;100.00
23433;BME280;41331;45.412;10.992;2024-02-23T05:47:59;99072.72;;;10.53;100.00
23433;BME280;41331;45.412;10.992;2024-02-23T05:50:27;99078.16;;;10.53;100.00
23433;BME280;41331;45.412;10.992;2024-02-23T05:52:55;99071.94;;;10.52;100.00
23433;BME280;41331;45.412;10.992;2024-02-23T05:55:23;99072.88;;;10.60;100.00
23433;BME280;41331;45.412;10.992;2024-02-23T05:57:51;99074.44;;;10.61;100.00
23433;BME280;41331;45.412;10.992;2024-02-23T06:00:19;99083.31;;;10.58;100.00
23433;BME280;41331;45.412;10.992;2024-02-23T06:02:47;99082.69;;;10.65;100.00
23433;BME280;41331;45.412;10.992;2024-02-23T06:05:32;99076.50;;;10.68;100.00
23433;BME280;41331;45.412;10.992;2024-02-23T06:08:00;99082.25;;;10.62;100.00
23433;BME280;41331;45.412;10.992;2024-02-23T06:10:29;99079.97;;;10.65;100.00
23433;BME280;41331;45.412;10.992;2024-02-23T06:12:56;99081.88;;;10.64;100.00
23433;BME280;41331;45.412;10.992;2024-02-23T06:15:27;99075.72;;;10.67;100.00
23433;BME280;41331;45.412;10.992;2024-02-23T06:17:55;99073.38;;;10.66;100.00
23433;BME280;41331;45.412;10.992;2024-02-23T06:20:23;99076.38;;;10.60;100.00
23433;BME280;41331;45.412;10.992;2024-02-23T06:22:50;99090.41;;;10.62;100.00
23433;BME280;41331;45.412;10.992;2024-02-23T06:25:19;99100.50;;;10.62;100.00
23433;BME280;41331;45.412;10.992;2024-02-23T06:27:46;99101.28;;;10.62;100.00
23433;BME280;41331;45.412;10.992;2024-02-23T06:30:14;99103.59;;;10.60;100.00
23433;BME280;41331;45.412;10.992;2024-02-23T06:32:42;99099.63;;;10.58;100.00
23433;BME280;41331;45.412;10.992;2024-02-23T06:35:10;99099.31;;;10.59;100.00
23433;BME280;41331;45.412;10.992;2024-02-23T06:37:39;99105.44;;;10.56;100.00
23433;BME280;41331;45.412;10.992;2024-02-23T06:40:07;99113.91;;;10.51;100.00
23433;BME280;41331;45.412;10.992;2024-02-23T06:42:35;99106.44;;;10.48;100.00
23433;BME280;41331;45.412;10.992;2024-02-23T06:45:03;99105.03;;;10.54;100.00
23433;BME280;41331;45.412;10.992;2024-02-23T06:47:31;99111.09;;;10.48;100.00
23433;BME280;41331;45.412;10.992;2024-02-23T06:49:59;99107.47;;;10.40;100.00
23433;BME280;41331;45.412;10.992;2024-02-23T06:52:27;99112.91;;;10.40;100.00
23433;BME280;41331;45.412;10.992;2024-02-23T06:54:56;99114.56;;;10.45;100.00
23433;BME280;41331;45.412;10.992;2024-02-23T06:57:23;99105.63;;;10.44;100.00
23433;BME280;41331;45.412;10.992;2024-02-23T06:59:53;99108.34;;;10.44;100.00
23433;BME280;41331;45.412;10.992;2024-02-23T07:02:21;99113.91;;;10.32;100.00
23433;BME280;41331;45.412;10.992;2024-02-23T07:04:49;99107.78;;;10.35;100.00
23433;BME280;41331;45.412;10.992;2024-02-23T07:07:17;99094.50;;;10.33;100.00
23433;BME280;41331;45.412;10.992;2024-02-23T07:09:45;99098.25;;;10.25;100.00
23433;BME280;41331;45.412;10.992;2024-02-23T07:12:13;99092.44;;;10.27;100.00
23433;BME280;41331;45.412;10.992;2024-02-23T07:14:41;99095.34;;;10.18;100.00
23433;BME280;41331;45.412;10.992;2024-02-23T07:17:09;99092.34;;;10.23;100.00
23433;BME280;41331;45.412;10.992;2024-02-23T07:19:38;99097.09;;;10.26;100.00
23433;BME280;41331;45.412;10.992;2024-02-23T07:22:06;99095.53;;;10.25;100.00
23433;BME280;41331;45.412;10.992;2024-02-23T07:24:42;99100.44;;;10.20;100.00
23433;BME280;41331;45.412;10.992;2024-02-23T07:27:10;99089.19;;;10.21;100.00
23433;BME280;41331;45.412;10.992;2024-02-23T07:29:37;99092.06;;;10.28;100.00
23433;BME280;41331;45.412;10.992;2024-02-23T07:32:06;99093.97;;;10.24;100.00
23433;BME280;41331;45.412;10.992;2024-02-23T07:34:34;99095.16;;;10.27;100.00
23433;BME280;41331;45.412;10.992;2024-02-23T07:37:02;99092.34;;;10.23;100.00
23433;BME280;41331;45.412;10.992;2024-02-23T07:39:31;99101.94;;;10.17;100.00
23433;BME280;41331;45.412;10.992;2024-02-23T07:41:59;99097.28;;;10.18;100.00
23433;BME280;41331;45.412;10.992;2024-02-23T07:44:27;99091.25;;;10.08;100.00
23433;BME280;41331;45.412;10.992;2024-02-23T07:46:55;99087.47;;;10.13;100.00
23433;BME280;41331;45.412;10.992;2024-02-23T07:49:23;99090.19;;;10.13;100.00
23433;BME280;41331;45.412;10.992;2024-02-23T07:51:51;99086.59;;;10.09;100.00
23433;BME280;41331;45.412;10.992;2024-02-23T07:54:18;99086.34;;;10.14;100.00
23433;BME280;41331;45.412;10.992;2024-02-23T07:56:46;99084.75;;;10.13;100.00
23433;BME280;41331;45.412;10.992;2024-02-23T07:59:14;99092.56;;;10.15;100.00
23433;BME280;41331;45.412;10.992;2024-02-23T08:01:41;99082.03;;;10.13;100.00
23433;BME280;41331;45.412;10.992;2024-02-23T08:04:09;99089.84;;;10.15;100.00
23433;BME280;41331;45.412;10.992;2024-02-23T08:06:37;99086.41;;;10.18;100.00
23433;BME280;41331;45.412;10.992;2024-02-23T08:09:06;99090.16;;;10.29;100.00
23433;BME280;41331;45.412;10.992;2024-02-23T08:11:35;99092.44;;;10.27;100.00
23433;BME280;41331;45.412;10.992;2024-02-23T08:14:03;99083.88;;;10.25;100.00
23433;BME280;41331;45.412;10.992;2024-02-23T08:16:31;99089.72;;;10.27;100.00
23433;BME280;41331;45.412;10.992;2024-02-23T08:18:59;99089.34;;;10.28;100.00
23433;BME280;41331;45.412;10.992;2024-02-23T08:21:27;99085.66;;;10.36;100.00
23433;BME280;41331;45.412;10.992;2024-02-23T08:23:55;99081.28;;;10.32;100.00
23433;BME280;41331;45.412;10.992;2024-02-23T08:26:22;99081.28;;;10.32;100.00
23433;BME280;41331;45.412;10.992;2024-02-23T08:28:50;99078.56;;;10.32;100.00
23433;BME280;41331;45.412;10.992;2024-02-23T08:31:18;99089.84;;;10.34;100.00
23433;BME280;41331;45.412;10.992;2024-02-23T08:33:46;99084.50;;;10.37;100.00
23433;BME280;41331;45.412;10.992;2024-02-23T08:36:14;99091.88;;;10.37;100.00
23433;BME280;41331;45.412;10.992;2024-02-23T08:38:42;99094.22;;;10.38;100.00
23433;BME280;41331;45.412;10.992;2024-02-23T08:41:10;99093.22;;;10.47;100.00
23433;BME280;41331;45.412;10.992;2024-02-23T08:43:37;99090.31;;;10.36;100.00
23433;BME280;41331;45.412;10.992;2024-02-23T08:46:06;99089.06;;;10.33;100.00
23433;BME280;41331;45.412;10.992;2024-02-23T08:48:36;99091.88;;;10.37;100.00
23433;BME280;41331;45.412;10.992;2024-02-23T08:51:04;99097.00;;;10.42;100.00
23433;BME280;41331;45.412;10.992;2024-02-23T08:53:32;99098.09;;;10.37;100.00
23433;BME280;41331;45.412;10.992;2024-02-23T08:56:00;99099.25;;;10.36;100.00
23433;BME280;41331;45.412;10.992;2024-02-23T08:58:28;99091.50;;;10.38;100.00
23433;BME280;41331;45.412;10.992;2024-02-23T09:00:56;99094.78;;;10.48;100.00
23433;BME280;41331;45.412;10.992;2024-02-23T09:03:24;99098.25;;;10.45;100.00
23433;BME280;41331;45.412;10.992;2024-02-23T09:05:51;99100.97;;;10.45;100.00
23433;BME280;41331;45.412;10.992;2024-02-23T09:08:19;99102.91;;;10.44;100.00
23433;BME280;41331;45.412;10.992;2024-02-23T09:10:50;99108.59;;;10.39;100.00
23433;BME280;41331;45.412;10.992;2024-02-23T09:13:18;99100.19;;;10.44;100.00
23433;BME280;41331;45.412;10.992;2024-02-23T09:15:46;99092.44;;;10.46;100.00
23433;BME280;41331;45.412;10.992;2024-02-23T09:18:14;99092.06;;;10.48;100.00
23433;BME280;41331;45.412;10.992;2024-02-23T09:20:42;99088.72;;;10.54;100.00
23433;BME280;41331;45.412;10.992;2024-02-23T09:23:09;99090.22;;;10.52;100.00
23433;BME280;41331;45.412;10.992;2024-02-23T09:25:39;99087.97;;;10.57;100.00
23433;BME280;41331;45.412;10.992;2024-02-23T09:28:10;99086.81;;;10.58;100.00
23433;BME280;41331;45.412;10.992;2024-02-23T09:30:39;99078.72;;;10.62;100.00
23433;BME280;41331;45.412;10.992;2024-02-23T09:33:08;99077.53;;;10.59;100.00
23433;BME280;41331;45.412;10.992;2024-02-23T09:35:36;99078.31;;;10.60;100.00
23433;BME280;41331;45.412;10.992;2024-02-23T09:38:04;99083.03;;;10.63;100.00
23433;BME280;41331;45.412;10.992;2024-02-23T09:40:32;99069.91;;;10.69;100.00
23433;BME280;41331;45.412;10.992;2024-02-23T09:43:00;99070.34;;;10.71;100.00
23433;BME280;41331;45.412;10.992;2024-02-23T09:45:27;99074.63;;;10.72;100.00
23433;BME280;41331;45.412;10.992;2024-02-23T09:47:57;99074.06;;;10.62;100.00
23433;BME280;41331;45.412;10.992;2024-02-23T09:50:28;99071.66;;;10.57;100.00
23433;BME280;41331;45.412;10.992;2024-02-23T09:52:58;99081.75;;;10.57;100.00
23433;BME280;41331;45.412;10.992;2024-02-23T09:55:28;99083.88;;;10.67;100.00
23433;BME280;41331;45.412;10.992;2024-02-23T09:57:57;99088.31;;;10.75;100.00
23433;BME280;41331;45.412;10.992;2024-02-23T10:00:27;99083.88;;;10.67;100.00
23433;BME280;41331;45.412;10.992;2024-02-23T10:02:55;99089.44;;;10.74;100.00
23433;BME280;41331;45.412;10.992;2024-02-23T10:05:29;99094.75;;;10.67;100.00
23433;BME280;41331;45.412;10.992;2024-02-23T10:08:03;99096.03;;;10.73;100.00
23433;BME280;41331;45.412;10.992;2024-02-23T10:10:35;99086.00;;;10.77;100.00
23433;BME280;41331;45.412;10.992;2024-02-23T10:13:06;99084.84;;;10.78;100.00
23433;BME280;41331;45.412;10.992;2024-02-23T10:15:33;99089.03;;;10.72;100.00
23433;BME280;41331;45.412;10.992;2024-02-23T10:18:01;99085.28;;;10.80;100.00
23433;BME280;41331;45.412;10.992;2024-02-23T10:20:29;99078.28;;;10.79;100.00
23433;BME280;41331;45.412;10.992;2024-02-23T10:22:57;99085.78;;;10.86;100.00
23433;BME280;41331;45.412;10.992;2024-02-23T10:25:25;99088.50;;;10.86;100.00
23433;BME280;41331;45.412;10.992;2024-02-23T10:27:53;99090.34;;;10.82;100.00
23433;BME280;41331;45.412;10.992;2024-02-23T10:30:21;99095.38;;;10.80;100.00
23433;BME280;41331;45.412;10.992;2024-02-23T10:32:51;99089.50;;;10.78;100.00
23433;BME280;41331;45.412;10.992;2024-02-23T10:35:21;99088.31;;;10.75;100.00
23433;BME280;41331;45.412;10.992;2024-02-23T10:37:51;99099.25;;;10.79;100.00
23433;BME280;41331;45.412;10.992;2024-02-23T10:40:21;99092.22;;;10.78;100.00
23433;BME280;41331;45.412;10.992;2024-02-23T10:42:56;99088.41;;;10.82;100.00
23433;BME280;41331;45.412;10.992;2024-02-23T10:45:24;99088.13;;;10.87;100.00
23433;BME280;41331;45.412;10.992;2024-02-23T10:47:52;99073.44;;;10.92;100.00
23433;BME280;41331;45.412;10.992;2024-02-23T10:50:21;99074.13;;;10.89;100.00
23433;BME280;41331;45.412;10.992;2024-02-23T10:52:50;99082.91;;;10.79;100.00
23433;BME280;41331;45.412;10.992;2024-02-23T10:55:18;99078.06;;;10.69;100.00
23433;BME280;41331;45.412;10.992;2024-02-23T10:57:48;99073.09;;;10.74;100.00
23433;BME280;41331;45.412;10.992;2024-02-23T11:00:18;99073.56;;;10.76;100.00
23433;BME280;41331;45.412;10.992;2024-02-23T11:02:50;99075.78;;;10.71;100.00
23433;BME280;41331;45.412;10.992;2024-02-23T11:05:19;99076.28;;;10.76;100.00
23433;BME280;41331;45.412;10.992;2024-02-23T11:07:48;99074.25;;;10.73;100.00
23433;BME280;41331;45.412;10.992;2024-02-23T11:10:19;99070.53;;;10.81;100.00
23433;BME280;41331;45.412;10.992;2024-02-23T11:13:00;99075.50;;;10.76;100.00
23433;BME280;41331;45.412;10.992;2024-02-23T11:15:29;99073.97;;;10.78;100.00
23433;BME280;41331;45.412;10.992;2024-02-23T11:17:58;99075.56;;;10.79;100.00
23433;BME280;41331;45.412;10.992;2024-02-23T11:20:34;99073.31;;;10.85;100.00
23433;BME280;41331;45.412;10.992;2024-02-23T11:23:12;99073.81;;;10.91;100.00
23433;BME280;41331;45.412;10.992;2024-02-23T11:25:40;99080.88;;;10.95;100.00
23433;BME280;41331;45.412;10.992;2024-02-23T11:28:08;99085.16;;;10.96;100.00
23433;BME280;41331;45.412;10.992;2024-02-23T11:30:36;99085.22;;;11.00;100.00
23433;BME280;41331;45.412;10.992;2024-02-23T11:33:07;99088.25;;;10.95;100.00
23433;BME280;41331;45.412;10.992;2024-02-23T11:35:46;99073.13;;;10.97;100.00
23433;BME280;41331;45.412;10.992;2024-02-23T11:38:17;99060.72;;;11.00;100.00
23433;BME280;41331;45.412;10.992;2024-02-23T11:40:47;99069.91;;;10.92;100.00
23433;BME280;41331;45.412;10.992;2024-02-23T11:43:16;99057.25;;;11.03;100.00
23433;BME280;41331;45.412;10.992;2024-02-23T11:45:46;99047.47;;;10.98;100.00
23433;BME280;41331;45.412;10.992;2024-02-23T11:48:14;99055.22;;;10.96;100.00
23433;BME280;41331;45.412;10.992;2024-02-23T11:50:42;99047.91;;;11.00;100.00
23433;BME280;41331;45.412;10.992;2024-02-23T11:53:10;99044.75;;;10.98;100.00
23433;BME280;41331;45.412;10.992;2024-02-23T11:55:38;99045.22;;;11.04;100.00
23433;BME280;41331;45.412;10.992;2024-02-23T11:58:06;99035.53;;;11.06;100.00
23433;BME280;41331;45.412;10.992;2024-02-23T12:00:44;99028.94;;;11.07;100.00
23433;BME280;41331;45.412;10.992;2024-02-23T12:03:13;99021.56;;;11.08;100.00
23433;BME280;41331;45.412;10.992;2024-02-23T12:05:41;99022.47;;;11.15;100.00
23433;BME280;41331;45.412;10.992;2024-02-23T12:08:09;99024.75;;;11.13;100.00
23433;BME280;41331;45.412;10.992;2024-02-23T12:10:37;99028.25;;;11.14;100.00
23433;BME280;41331;45.412;10.992;2024-02-23T12:13:05;99025.91;;;11.12;100.00
23433;BME280;41331;45.412;10.992;2024-02-23T12:15:33;99027.78;;;11.08;100.00
23433;BME280;41331;45.412;10.992;2024-02-23T12:18:03;99038.06;;;11.19;100.00
23433;BME280;41331;45.412;10.992;2024-02-23T12:20:34;99029.31;;;11.06;100.00
23433;BME280;41331;45.412;10.992;2024-02-23T12:23:02;99037.31;;;10.95;100.00
23433;BME280;41331;45.412;10.992;2024-02-23T12:25:30;99040.81;;;10.96;100.00
23433;BME280;41331;45.412;10.992;2024-02-23T12:27:58;99042.69;;;10.92;100.00
23433;BME280;41331;45.412;10.992;2024-02-23T12:30:27;99054.78;;;10.94;100.00
23433;BME280;41331;45.412;10.992;2024-02-23T12:33:05;99050.75;;;10.84;100.00
23433;BME280;41331;45.412;10.992;2024-02-23T12:35:34;99042.69;;;10.92;100.00
23433;BME280;41331;45.412;10.992;2024-02-23T12:38:02;99054.91;;;10.78;100.00
23433;BME280;41331;45.412;10.992;2024-02-23T12:40:30;99057.94;;;10.73;100.00
23433;BME280;41331;45.412;10.992;2024-02-23T12:42:58;99047.78;;;10.70;100.00
23433;BME280;41331;45.412;10.992;2024-02-23T12:45:26;99054.00;;;10.71;100.00
23433;BME280;41331;45.412;10.992;2024-02-23T12:47:54;99050.84;;;10.69;100.00
23433;BME280;41331;45.412;10.992;2024-02-23T12:50:22;99051.34;;;10.74;100.00